Shanesville, Ohio
Current Conditions -  °F | °C
As of 2:53 PM on Sunday 21 Dec 2014 (Local Time) from KPHD Reporting Station
Overcast Overcast  
Wind Chill: 33°   Ceiling: 2500
Heat Index: 33°   Visibility: 10mi
Dew Point: 22°   Wind: 3mph
Humidity: 64%   Direction: 90°E
Pressure: 30.24"   Gusts: NA
Location:  40.5178°N, 81.673°W
Report Text: KPHD 211953Z AUTO 09003KT 10SM OVC025 01/M06 A3024 RMK AO2 SLP250 T00061056
Loading
Personal Weather Stations






























Interactive Weather Map New forecast layout! Learn more

10-Day Weather Forecast

Advertisements
Track Severe Weather on mobile